Time;durP1;ratioP1;P1;durP2;ratioP2;P2;SDS_P1;SDS_P2;PMS_P1;PMS_P2;Temp;Humidity;BMP_temperature;BMP_pressure;BME280_temperature;BME280_humidity;BME280_pressure;Samples;Min_cycle;Max_cycle;Signal;HPM_P1;HPM_P2
2022/09/16 00:01:14;;;;;;;20.02;13.65;;;13.00;99.90;;;;;;5074298;28;20585;-70
2022/09/16 00:03:43;;;;;;;19.67;12.75;;;13.00;99.90;;;;;;5074326;28;20243;-69
2022/09/16 00:06:20;;;;;;;17.70;12.98;;;13.10;99.90;;;;;;5074103;28;20210;-71
2022/09/16 00:08:51;;;;;;;19.17;13.32;;;13.10;99.90;;;;;;5074092;28;20297;-70
2022/09/16 00:11:20;;;;;;;16.48;11.85;;;13.10;99.90;;;;;;5074105;28;20191;-71
2022/09/16 00:13:48;;;;;;;16.95;11.95;;;13.10;99.90;;;;;;5074002;28;20561;-68
2022/09/16 00:16:19;;;;;;;13.32;10.40;;;13.10;99.90;;;;;;5074088;28;20207;-70
2022/09/16 00:18:49;;;;;;;22.05;12.88;;;13.10;99.90;;;;;;5073902;28;20223;-69
2022/09/16 00:21:17;;;;;;;18.45;13.63;;;13.10;99.90;;;;;;5073925;28;20206;-70
2022/09/16 00:23:46;;;;;;;18.85;12.82;;;13.10;99.90;;;;;;5072415;28;20223;-68
2022/09/16 00:26:16;;;;;;;17.35;12.48;;;13.20;99.90;;;;;;5072450;28;20206;-70
2022/09/16 00:28:48;;;;;;;19.23;13.50;;;13.20;99.90;;;;;;5072571;28;20241;-70
2022/09/16 00:31:16;;;;;;;16.73;12.27;;;13.20;99.90;;;;;;5073888;28;20183;-68
2022/09/16 00:33:45;;;;;;;15.65;12.13;;;13.20;99.90;;;;;;5073775;28;20696;-68
2022/09/16 00:36:16;;;;;;;18.70;12.30;;;13.20;99.90;;;;;;5073509;28;20198;-69
2022/09/16 00:38:45;;;;;;;17.70;12.30;;;13.20;99.90;;;;;;5073470;28;20293;-68
2022/09/16 00:41:22;;;;;;;17.67;12.38;;;13.20;99.90;;;;;;5073583;28;20211;-69
2022/09/16 00:43:54;;;;;;;16.80;12.05;;;13.20;99.90;;;;;;5073322;28;20211;-70
2022/09/16 00:46:30;;;;;;;16.27;11.50;;;13.20;99.90;;;;;;5073068;28;20199;-69
2022/09/16 00:49:03;;;;;;;15.35;11.32;;;13.20;99.90;;;;;;5073247;28;20215;-70
2022/09/16 00:51:32;;;;;;;20.48;12.48;;;13.20;99.90;;;;;;5073585;28;20199;-70
2022/09/16 00:54:04;;;;;;;15.38;11.98;;;13.20;99.90;;;;;;5073191;28;20673;-70
2022/09/16 00:56:37;;;;;;;18.35;12.85;;;13.20;99.90;;;;;;5072837;28;20196;-69
2022/09/16 00:59:09;;;;;;;15.07;11.63;;;13.20;99.90;;;;;;5073080;28;20215;-70
2022/09/16 01:01:39;;;;;;;18.27;12.30;;;13.20;99.90;;;;;;5072888;28;20200;-69
2022/09/16 01:04:14;;;;;;;16.25;11.50;;;13.20;99.90;;;;;;5072842;28;20350;-70
2022/09/16 01:06:43;;;;;;;15.52;11.10;;;13.20;99.90;;;;;;5073390;28;20409;-69
2022/09/16 01:09:12;;;;;;;14.15;10.93;;;13.10;99.90;;;;;;5072902;28;20211;-68
2022/09/16 01:11:42;;;;;;;14.00;10.70;;;13.20;99.90;;;;;;5072801;28;20187;-70
2022/09/16 01:17:02;;;;;;;15.85;10.68;;;13.20;99.90;;;;;;5072734;28;20183;-69
2022/09/16 01:19:43;;;;;;;12.75;10.02;;;13.20;99.90;;;;;;5073000;28;20191;-71
2022/09/16 01:22:27;;;;;;;16.23;10.70;;;13.20;99.90;;;;;;5072523;28;20202;-70
2022/09/16 01:25:20;;;;;;;16.63;11.63;;;13.20;99.90;;;;;;5073433;28;20227;-68
2022/09/16 01:28:20;;;;;;;14.27;10.35;;;13.20;99.90;;;;;;5072448;28;20238;-69
2022/09/16 01:31:02;;;;;;;16.48;10.38;;;13.20;99.90;;;;;;5072526;28;20191;-69
2022/09/16 01:33:40;;;;;;;16.08;10.93;;;13.20;99.90;;;;;;5072667;28;20629;-69
2022/09/16 01:36:30;;;;;;;13.43;10.50;;;13.20;99.90;;;;;;5072578;28;20183;-71
2022/09/16 01:39:23;;;;;;;12.70;8.77;;;13.20;99.90;;;;;;5072426;28;20219;-70
2022/09/16 01:42:06;;;;;;;11.23;7.72;;;13.20;99.90;;;;;;5072859;28;20203;-71
2022/09/16 01:44:44;;;;;;;11.73;7.75;;;13.20;99.90;;;;;;5087484;28;20225;-73
2022/09/16 01:47:20;;;;;;;11.80;7.03;;;13.20;99.90;;;;;;5092597;28;20553;-70
2022/09/16 01:49:58;;;;;;;8.23;7.00;;;13.20;99.90;;;;;;5092687;28;20190;-71
2022/09/16 01:52:35;;;;;;;9.80;6.95;;;13.20;99.90;;;;;;5092840;28;20187;-72
2022/09/16 01:55:06;;;;;;;10.15;6.50;;;13.20;99.90;;;;;;5092514;28;20190;-70
2022/09/16 01:57:39;;;;;;;8.32;6.13;;;13.20;99.90;;;;;;5091410;28;20210;-69
2022/09/16 02:00:12;;;;;;;9.48;5.78;;;13.20;99.90;;;;;;5092384;28;20187;-69
2022/09/16 02:02:47;;;;;;;10.77;6.32;;;13.20;99.90;;;;;;5092424;28;20190;-69
2022/09/16 02:05:19;;;;;;;9.82;6.22;;;13.10;99.90;;;;;;5092390;28;20218;-69
2022/09/16 02:07:53;;;;;;;7.75;5.40;;;13.20;99.90;;;;;;5093638;28;20226;-69
2022/09/16 02:10:25;;;;;;;8.13;5.38;;;13.20;99.90;;;;;;5096635;28;20187;-70
2022/09/16 02:12:59;;;;;;;6.55;5.05;;;13.10;99.90;;;;;;5096514;28;20190;-71
2022/09/16 02:15:30;;;;;;;8.38;5.40;;;13.10;99.90;;;;;;5095473;28;20221;-70
2022/09/16 02:18:04;;;;;;;7.25;5.00;;;13.10;99.90;;;;;;5096487;28;20220;-70
2022/09/16 02:20:38;;;;;;;7.47;4.32;;;13.20;99.90;;;;;;5085267;28;20684;-70
2022/09/16 02:23:12;;;;;;;9.88;5.05;;;13.10;99.90;;;;;;5076009;28;20203;-70
2022/09/16 02:25:44;;;;;;;5.72;4.50;;;13.10;99.90;;;;;;5076234;28;20241;-69
2022/09/16 02:28:18;;;;;;;8.57;4.47;;;13.10;99.90;;;;;;5075933;28;20210;-70
2022/09/16 02:30:51;;;;;;;9.38;4.47;;;13.10;99.90;;;;;;5076055;28;20200;-71
2022/09/16 02:33:24;;;;;;;5.63;4.50;;;13.10;99.90;;;;;;5076659;28;20214;-71
2022/09/16 02:35:55;;;;;;;8.57;4.43;;;13.10;99.90;;;;;;5091992;28;20197;-74
2022/09/16 02:38:28;;;;;;;8.07;4.55;;;13.10;99.90;;;;;;5075504;28;20226;-69
2022/09/16 02:41:00;;;;;;;8.60;5.32;;;13.10;99.90;;;;;;5075844;28;20195;-71
2022/09/16 02:43:29;;;;;;;11.10;5.32;;;13.10;99.90;;;;;;5075485;28;20202;-71
2022/09/16 02:46:07;;;;;;;8.75;4.60;;;13.10;99.90;;;;;;5075592;28;20226;-71
2022/09/16 02:48:45;;;;;;;10.65;4.50;;;13.10;99.90;;;;;;5075969;28;20215;-69
2022/09/16 02:51:18;;;;;;;9.15;4.82;;;13.10;99.90;;;;;;5075614;28;20655;-70
2022/09/16 02:53:52;;;;;;;8.45;4.43;;;13.10;99.90;;;;;;5075465;28;20190;-69
2022/09/16 02:56:27;;;;;;;7.53;4.50;;;13.10;99.90;;;;;;5075307;28;20198;-69
2022/09/16 02:58:56;;;;;;;7.57;5.25;;;13.10;99.90;;;;;;5075278;28;20221;-69
2022/09/16 03:01:25;;;;;;;7.22;4.68;;;13.10;99.90;;;;;;5075393;28;20191;-70
2022/09/16 03:03:56;;;;;;;9.30;4.60;;;13.00;99.90;;;;;;5075250;28;20203;-69
2022/09/16 03:06:27;;;;;;;7.03;4.70;;;13.00;99.90;;;;;;5075734;28;20207;-69
2022/09/16 03:08:59;;;;;;;8.07;4.43;;;13.00;99.90;;;;;;5075451;28;20223;-70
2022/09/16 03:12:03;;;;;;;6.93;4.75;;;13.00;99.90;;;;;;5075195;28;20183;-69
2022/09/16 03:14:51;;;;;;;7.80;4.55;;;13.10;99.90;;;;;;5075165;28;20187;-69
2022/09/16 03:17:37;;;;;;;8.18;5.32;;;13.00;99.90;;;;;;5075356;28;20595;-70
2022/09/16 03:20:17;;;;;;;9.18;4.97;;;13.00;99.90;;;;;;5074920;28;20198;-70
2022/09/16 03:22:54;;;;;;;6.38;4.88;;;13.00;99.90;;;;;;5075197;28;20217;-69
2022/09/16 03:25:35;;;;;;;5.88;4.97;;;13.00;99.90;;;;;;5074877;28;20214;-70
2022/09/16 03:28:12;;;;;;;7.38;4.75;;;13.00;99.90;;;;;;5074908;28;20219;-69
2022/09/16 03:30:52;;;;;;;9.60;5.68;;;13.00;99.90;;;;;;5075240;28;20287;-69
2022/09/16 03:33:26;;;;;;;8.45;5.28;;;13.00;99.90;;;;;;5073880;28;20202;-70
2022/09/16 03:35:59;;;;;;;8.25;5.30;;;13.00;99.90;;;;;;5074727;28;20206;-69
2022/09/16 03:38:28;;;;;;;7.10;4.90;;;12.90;99.90;;;;;;5074754;28;20227;-70
2022/09/16 03:40:57;;;;;;;5.10;4.45;;;12.90;99.90;;;;;;5075108;28;20195;-70
2022/09/16 03:43:26;;;;;;;8.38;4.70;;;13.00;99.90;;;;;;5074540;28;20662;-69
2022/09/16 03:45:55;;;;;;;9.32;4.50;;;12.90;99.90;;;;;;5074353;28;20591;-69
2022/09/16 03:48:23;;;;;;;7.43;4.85;;;12.90;99.90;;;;;;5074262;28;20230;-69
2022/09/16 03:50:52;;;;;;;7.90;4.82;;;12.90;99.90;;;;;;5074339;28;20692;-70
2022/09/16 03:53:22;;;;;;;12.00;4.72;;;12.90;99.90;;;;;;5074417;28;20199;-69
2022/09/16 03:55:50;;;;;;;8.48;4.88;;;12.90;99.90;;;;;;5074343;28;20194;-68
2022/09/16 03:58:19;;;;;;;7.55;4.65;;;12.90;99.90;;;;;;5074641;28;20713;-69
2022/09/16 04:00:50;;;;;;;10.10;5.00;;;12.90;99.90;;;;;;5074252;28;20199;-69
2022/09/16 04:03:19;;;;;;;6.05;4.65;;;12.90;99.90;;;;;;5074214;28;20187;-68
2022/09/16 04:05:52;;;;;;;9.63;4.57;;;12.90;99.90;;;;;;5074063;28;20226;-68
2022/09/16 04:08:23;;;;;;;7.75;4.30;;;12.90;99.90;;;;;;5074092;28;20261;-70
2022/09/16 04:10:55;;;;;;;7.80;4.85;;;12.90;99.90;;;;;;5074132;28;20202;-69
2022/09/16 04:13:24;;;;;;;6.30;4.55;;;12.90;99.90;;;;;;5074156;28;20194;-69
2022/09/16 04:15:53;;;;;;;9.13;3.90;;;12.90;99.90;;;;;;5094242;28;20195;-69
2022/09/16 04:18:21;;;;;;;6.00;3.90;;;12.90;99.90;;;;;;5094159;28;20218;-69
2022/09/16 04:20:50;;;;;;;9.48;4.28;;;12.90;99.90;;;;;;5094175;28;20197;-69
2022/09/16 04:23:18;;;;;;;5.65;4.07;;;12.80;99.90;;;;;;5093796;28;20576;-69
2022/09/16 04:25:55;;;;;;;5.88;4.25;;;12.80;99.90;;;;;;5094073;28;20588;-70
2022/09/16 04:28:24;;;;;;;6.82;4.03;;;12.80;99.90;;;;;;5094030;28;20587;-69
2022/09/16 04:30:52;;;;;;;7.25;3.95;;;12.80;99.90;;;;;;5092299;28;20202;-70
2022/09/16 04:33:22;;;;;;;6.95;4.65;;;12.80;99.90;;;;;;5074993;28;20202;-69
2022/09/16 04:35:50;;;;;;;7.78;4.35;;;12.80;99.90;;;;;;5073617;28;20192;-68
2022/09/16 04:38:19;;;;;;;10.15;4.00;;;12.80;99.90;;;;;;5073189;28;20211;-70
2022/09/16 04:40:47;;;;;;;5.40;3.97;;;12.80;99.90;;;;;;5073747;28;20202;-70
2022/09/16 04:43:17;;;;;;;7.40;4.03;;;12.80;99.90;;;;;;5073278;28;20194;-69
2022/09/16 04:45:46;;;;;;;9.35;3.97;;;12.80;99.90;;;;;;5073255;28;20223;-71
2022/09/16 04:48:16;;;;;;;8.43;3.90;;;12.80;99.90;;;;;;5073618;28;20226;-69
2022/09/16 04:50:45;;;;;;;5.72;3.60;;;12.80;99.90;;;;;;5073215;28;20554;-70
2022/09/16 04:53:14;;;;;;;8.20;3.65;;;12.80;99.90;;;;;;5073434;28;20218;-70
2022/09/16 04:55:42;;;;;;;7.10;4.15;;;12.80;99.90;;;;;;5073187;28;20555;-69
2022/09/16 04:58:11;;;;;;;9.00;4.40;;;12.80;99.90;;;;;;5073372;28;20215;-70
2022/09/16 05:00:41;;;;;;;7.47;4.03;;;12.80;99.90;;;;;;5072984;28;20191;-69
2022/09/16 05:03:10;;;;;;;5.32;4.53;;;12.70;99.90;;;;;;5073148;28;20199;-70
2022/09/16 05:05:39;;;;;;;6.93;4.05;;;12.70;99.90;;;;;;5073138;28;20202;-70
2022/09/16 05:08:08;;;;;;;7.65;4.75;;;12.70;99.90;;;;;;5072784;28;20222;-70
2022/09/16 05:10:36;;;;;;;10.50;5.50;;;12.70;99.90;;;;;;5072949;28;20537;-70
2022/09/16 05:13:05;;;;;;;8.23;4.80;;;12.70;99.90;;;;;;5072839;28;20764;-69
2022/09/16 05:15:34;;;;;;;10.07;5.47;;;12.70;99.90;;;;;;5072680;28;20195;-68
2022/09/16 05:18:04;;;;;;;8.30;5.40;;;12.70;99.90;;;;;;5071588;28;20226;-69
2022/09/16 05:20:32;;;;;;;8.90;5.20;;;12.70;99.90;;;;;;5073085;28;20195;-68
2022/09/16 05:23:01;;;;;;;13.60;6.13;;;12.70;99.90;;;;;;5072863;28;20215;-68
2022/09/16 05:25:30;;;;;;;10.52;5.60;;;12.70;99.90;;;;;;5072567;28;20206;-68
2022/09/16 05:28:00;;;;;;;9.50;5.78;;;12.80;99.90;;;;;;5072406;28;20227;-69
2022/09/16 05:30:28;;;;;;;10.57;5.70;;;12.90;99.90;;;;;;5072636;28;20183;-69
2022/09/16 05:32:57;;;;;;;6.70;5.07;;;12.90;99.90;;;;;;5071560;28;20191;-69
2022/09/16 05:35:28;;;;;;;5.88;4.75;;;12.80;99.90;;;;;;5072781;28;20214;-71
2022/09/16 05:37:57;;;;;;;6.57;4.80;;;12.80;99.90;;;;;;5085625;28;20688;-69
2022/09/16 05:40:27;;;;;;;9.48;5.47;;;12.80;99.90;;;;;;5086050;28;20186;-71
2022/09/16 05:42:56;;;;;;;8.18;4.75;;;12.80;99.90;;;;;;5091129;28;20199;-69
2022/09/16 05:45:25;;;;;;;6.88;5.28;;;12.80;99.90;;;;;;5085524;28;20187;-70
2022/09/16 05:47:59;;;;;;;7.80;5.20;;;12.80;99.90;;;;;;5089038;28;20237;-70
2022/09/16 05:50:29;;;;;;;8.95;4.70;;;12.80;99.90;;;;;;5092558;28;20199;-70
2022/09/16 05:52:58;;;;;;;6.72;4.75;;;12.80;99.90;;;;;;5092453;28;20212;-70
2022/09/16 05:55:27;;;;;;;9.85;4.78;;;12.80;99.90;;;;;;5090918;28;20197;-74
2022/09/16 05:57:55;;;;;;;10.55;4.82;;;12.80;99.90;;;;;;5072055;28;20222;-73
2022/09/16 06:00:24;;;;;;;7.28;4.32;;;12.80;99.90;;;;;;5072309;28;20191;-73
2022/09/16 06:02:53;;;;;;;5.45;4.18;;;12.90;99.90;;;;;;5072278;28;20665;-70
2022/09/16 06:05:22;;;;;;;5.68;3.60;;;12.80;99.90;;;;;;5072250;28;20654;-70
2022/09/16 06:07:56;;;;;;;4.72;3.80;;;12.90;99.90;;;;;;5072112;28;20226;-71
2022/09/16 06:10:25;;;;;;;10.40;3.92;;;12.90;99.90;;;;;;5072164;28;20544;-71
2022/09/16 06:12:54;;;;;;;5.75;3.03;;;12.90;99.90;;;;;;5072585;28;20200;-71
2022/09/16 06:15:23;;;;;;;5.82;3.60;;;12.80;99.90;;;;;;5072384;28;20211;-71
2022/09/16 06:17:51;;;;;;;9.63;3.42;;;12.80;99.90;;;;;;5072099;28;20211;-72
2022/09/16 06:20:20;;;;;;;5.15;3.00;;;12.80;99.90;;;;;;5072072;28;20199;-70
2022/09/16 06:22:49;;;;;;;9.90;3.38;;;12.80;99.90;;;;;;5071715;28;20688;-72
2022/09/16 06:25:19;;;;;;;9.55;3.42;;;12.80;99.90;;;;;;5071968;28;20217;-72
2022/09/16 06:27:48;;;;;;;8.38;3.97;;;12.80;99.90;;;;;;5072049;28;20581;-72
2022/09/16 06:30:17;;;;;;;7.68;3.13;;;12.80;99.90;;;;;;5072197;28;20207;-73
2022/09/16 06:32:45;;;;;;;5.38;2.40;;;12.80;99.90;;;;;;5073824;28;20203;-71
2022/09/16 06:35:14;;;;;;;5.60;2.78;;;12.80;99.90;;;;;;5072049;28;20203;-72
2022/09/16 06:37:43;;;;;;;5.35;3.08;;;12.80;99.90;;;;;;5076192;28;20654;-71
2022/09/16 06:40:11;;;;;;;7.22;2.90;;;12.80;99.90;;;;;;5077154;28;20196;-72
2022/09/16 06:42:41;;;;;;;5.10;2.30;;;12.80;99.90;;;;;;5076905;28;20195;-72
2022/09/16 06:45:11;;;;;;;10.48;3.30;;;12.80;99.90;;;;;;5077421;28;20199;-70
2022/09/16 06:47:39;;;;;;;5.47;2.67;;;12.90;99.90;;;;;;5076909;28;20258;-71
2022/09/16 06:50:09;;;;;;;5.47;2.60;;;12.90;99.90;;;;;;5077555;28;20206;-73
2022/09/16 06:52:37;;;;;;;6.90;2.78;;;12.80;99.90;;;;;;5071814;28;20204;-73
2022/09/16 06:55:07;;;;;;;5.75;2.33;;;12.80;99.90;;;;;;5074600;28;20541;-73
2022/09/16 06:57:35;;;;;;;5.78;2.35;;;12.80;99.90;;;;;;5075382;28;20222;-72
2022/09/16 07:00:07;;;;;;;4.75;2.60;;;12.90;99.90;;;;;;5075404;28;20207;-72
2022/09/16 07:02:36;;;;;;;5.47;2.47;;;12.90;99.90;;;;;;5075670;28;20195;-72
2022/09/16 07:05:05;;;;;;;6.55;2.15;;;12.90;99.90;;;;;;5076710;28;20200;-72
2022/09/16 07:07:35;;;;;;;5.60;2.35;;;12.90;99.90;;;;;;5075052;28;20238;-72
2022/09/16 07:10:04;;;;;;;4.43;2.28;;;12.90;99.90;;;;;;5075272;28;20210;-72
2022/09/16 07:12:33;;;;;;;6.88;2.55;;;12.90;99.90;;;;;;5075151;28;20203;-72
2022/09/16 07:15:01;;;;;;;4.43;2.28;;;13.00;99.90;;;;;;5075964;28;20649;-72
2022/09/16 07:17:31;;;;;;;8.13;2.55;;;12.90;99.90;;;;;;5075110;28;20211;-73
2022/09/16 07:20:00;;;;;;;4.85;2.38;;;12.90;99.90;;;;;;5076366;28;20191;-72
2022/09/16 07:22:31;;;;;;;3.47;2.22;;;12.90;99.90;;;;;;5074369;28;20218;-73
2022/09/16 07:24:59;;;;;;;3.08;2.10;;;13.00;99.90;;;;;;5074919;28;20184;-73
2022/09/16 07:27:30;;;;;;;5.93;1.90;;;13.00;99.90;;;;;;5074635;28;20234;-72
2022/09/16 07:29:58;;;;;;;3.72;2.20;;;13.00;99.90;;;;;;5075193;28;20192;-73
2022/09/16 07:32:27;;;;;;;6.82;1.95;;;13.00;99.90;;;;;;5075123;28;20203;-72
2022/09/16 07:34:57;;;;;;;5.07;2.15;;;13.10;99.90;;;;;;5075411;28;20196;-72
2022/09/16 07:37:26;;;;;;;6.15;2.00;;;13.10;99.90;;;;;;5074963;28;20712;-72
2022/09/16 07:39:55;;;;;;;3.03;1.70;;;13.10;99.90;;;;;;5074451;28;20190;-71
2022/09/16 07:42:23;;;;;;;3.83;1.83;;;13.20;99.90;;;;;;5074502;28;20199;-71
2022/09/16 07:44:52;;;;;;;4.60;1.90;;;13.20;99.90;;;;;;5078070;28;20199;-72
2022/09/16 07:47:21;;;;;;;5.72;2.15;;;13.20;99.90;;;;;;5077866;28;20249;-72
2022/09/16 07:49:54;;;;;;;3.38;2.00;;;13.20;99.90;;;;;;5074350;28;20198;-73
2022/09/16 07:52:28;;;;;;;3.97;1.90;;;13.20;99.90;;;;;;5074471;28;20542;-72
2022/09/16 07:54:56;;;;;;;4.85;1.90;;;13.20;99.90;;;;;;5074775;28;20203;-72
2022/09/16 07:57:25;;;;;;;3.13;1.80;;;13.30;99.90;;;;;;5074252;28;20226;-71
2022/09/16 07:59:54;;;;;;;5.68;2.13;;;13.30;99.90;;;;;;5077633;28;20653;-71
2022/09/16 08:02:22;;;;;;;5.35;2.20;;;13.40;99.90;;;;;;5075951;28;20194;-72
2022/09/16 08:04:51;;;;;;;5.32;1.98;;;13.40;99.90;;;;;;5073576;28;20206;-72
2022/09/16 08:07:20;;;;;;;7.35;1.95;;;13.40;99.90;;;;;;5072353;28;20203;-72
2022/09/16 08:09:50;;;;;;;5.32;1.75;;;13.40;99.90;;;;;;5073840;28;20229;-71
2022/09/16 08:12:21;;;;;;;4.47;2.08;;;13.40;99.90;;;;;;5074725;28;20203;-72
2022/09/16 08:14:49;;;;;;;4.65;1.92;;;13.50;99.90;;;;;;5073973;28;20191;-72
2022/09/16 08:17:18;;;;;;;5.30;1.80;;;13.40;99.90;;;;;;5074190;28;20198;-72
2022/09/16 08:19:47;;;;;;;5.13;1.77;;;13.50;99.90;;;;;;5073804;28;20195;-72
2022/09/16 08:22:16;;;;;;;7.82;2.08;;;13.50;99.90;;;;;;5073426;28;20214;-72
2022/09/16 08:24:44;;;;;;;7.55;2.22;;;13.50;99.90;;;;;;5073701;28;20191;-72
2022/09/16 08:27:14;;;;;;;7.25;2.08;;;13.60;99.90;;;;;;5073950;28;20688;-72
2022/09/16 08:29:43;;;;;;;4.18;2.05;;;13.60;99.90;;;;;;5074551;28;20222;-72
2022/09/16 08:32:12;;;;;;;8.02;2.50;;;13.60;99.90;;;;;;5073595;28;20194;-72
2022/09/16 08:34:40;;;;;;;3.05;1.98;;;13.60;99.90;;;;;;5073510;28;20203;-72
2022/09/16 08:37:09;;;;;;;7.88;2.40;;;13.70;99.90;;;;;;5082193;28;20197;-72
2022/09/16 08:39:38;;;;;;;3.88;2.40;;;13.70;99.90;;;;;;5093537;28;20203;-72
2022/09/16 08:42:30;;;;;;;7.45;2.60;;;13.70;99.90;;;;;;5094127;28;20214;-71
2022/09/16 08:45:11;;;;;;;4.82;2.10;;;13.80;99.90;;;;;;5094950;28;20179;-72
2022/09/16 08:47:50;;;;;;;4.25;1.80;;;13.80;99.90;;;;;;5075884;28;20226;-71
2022/09/16 08:50:25;;;;;;;5.68;1.88;;;13.80;99.90;;;;;;5075193;28;20215;-72
2022/09/16 08:52:57;;;;;;;5.75;1.58;;;13.80;99.90;;;;;;5074906;28;20183;-71
2022/09/16 08:55:30;;;;;;;7.75;2.00;;;13.80;99.90;;;;;;5072525;28;20187;-75
2022/09/16 08:58:06;;;;;;;6.00;1.58;;;13.80;99.90;;;;;;5073083;28;20222;-71
2022/09/16 09:00:34;;;;;;;2.83;1.40;;;13.80;99.90;;;;;;5072979;28;20190;-72
2022/09/16 09:03:14;;;;;;;5.13;2.20;;;13.80;99.90;;;;;;5073389;28;20649;-71
2022/09/16 09:05:51;;;;;;;5.10;1.90;;;13.80;99.90;;;;;;5071895;28;20195;-71
2022/09/16 09:08:30;;;;;;;5.15;1.75;;;13.90;99.90;;;;;;5072708;28;20215;-71
2022/09/16 09:11:05;;;;;;;4.18;1.23;;;13.90;99.90;;;;;;5071748;28;20649;-72
2022/09/16 09:13:55;;;;;;;6.63;1.58;;;13.90;99.90;;;;;;5072901;28;20182;-72
2022/09/16 09:16:34;;;;;;;3.15;1.20;;;13.90;99.90;;;;;;5070846;28;20199;-72
2022/09/16 09:19:28;;;;;;;4.90;1.70;;;13.90;99.90;;;;;;5072656;28;20218;-72
2022/09/16 09:22:04;;;;;;;5.30;1.40;;;13.90;99.90;;;;;;5072436;28;20214;-71
2022/09/16 09:24:47;;;;;;;4.07;1.17;;;14.00;99.90;;;;;;5072834;28;20229;-72
2022/09/16 09:27:27;;;;;;;4.03;1.30;;;14.00;99.90;;;;;;5072660;28;20180;-72
2022/09/16 09:30:12;;;;;;;3.60;1.60;;;14.00;99.90;;;;;;5072661;28;20657;-72
2022/09/16 09:32:54;;;;;;;4.97;1.45;;;14.10;99.90;;;;;;5072548;28;20182;-71
2022/09/16 09:35:34;;;;;;;2.97;1.45;;;14.10;99.90;;;;;;5072695;28;20183;-71
2022/09/16 09:38:35;;;;;;;3.20;1.45;;;14.10;99.90;;;;;;5085891;28;20228;-71
2022/09/16 09:41:09;;;;;;;4.65;1.50;;;14.10;99.90;;;;;;5092718;28;20196;-71
2022/09/16 09:43:43;;;;;;;3.72;1.48;;;14.10;99.90;;;;;;5092571;28;20195;-66
2022/09/16 09:46:20;;;;;;;3.63;1.30;;;14.20;99.90;;;;;;5093038;28;20213;-70
2022/09/16 09:48:57;;;;;;;3.78;1.10;;;14.20;99.90;;;;;;5092791;28;20210;-72
2022/09/16 09:51:31;;;;;;;3.13;1.15;;;14.20;99.90;;;;;;5092627;28;20197;-72
2022/09/16 09:54:03;;;;;;;5.20;1.20;;;14.20;99.90;;;;;;5090447;28;20221;-72
2022/09/16 09:56:35;;;;;;;3.45;1.40;;;14.30;99.90;;;;;;5093301;28;20182;-72
2022/09/16 09:59:16;;;;;;;3.20;1.35;;;14.30;99.90;;;;;;5091170;28;20213;-72
2022/09/16 10:01:46;;;;;;;4.20;1.35;;;14.20;99.90;;;;;;5092399;28;20182;-72
2022/09/16 10:04:15;;;;;;;4.45;1.92;;;14.20;99.90;;;;;;5092197;28;20203;-71
2022/09/16 10:06:45;;;;;;;8.02;1.70;;;14.20;99.90;;;;;;5092625;28;20664;-72
2022/09/16 10:09:16;;;;;;;7.13;1.83;;;14.10;99.90;;;;;;5092607;28;20707;-72
2022/09/16 10:11:47;;;;;;;2.58;1.52;;;14.20;99.90;;;;;;5093620;28;20198;-72
2022/09/16 10:14:25;;;;;;;6.60;1.77;;;14.20;99.90;;;;;;5094269;28;20178;-72
2022/09/16 10:16:56;;;;;;;3.45;1.23;;;14.20;99.90;;;;;;5094100;28;20179;-71
2022/09/16 10:19:27;;;;;;;4.97;1.38;;;14.20;99.90;;;;;;5094375;28;20214;-72
2022/09/16 10:22:08;;;;;;;2.80;1.45;;;14.20;99.90;;;;;;5092927;28;20210;-72
2022/09/16 10:24:39;;;;;;;4.20;1.65;;;14.20;99.90;;;;;;5092404;28;20190;-72
2022/09/16 10:27:20;;;;;;;4.50;1.50;;;14.20;99.90;;;;;;5092466;28;20201;-72
2022/09/16 10:30:14;;;;;;;6.70;1.70;;;14.20;99.90;;;;;;5096585;28;20225;-72
2022/09/16 10:32:50;;;;;;;2.45;1.45;;;14.20;99.90;;;;;;5096354;28;20553;-72
2022/09/16 10:35:22;;;;;;;4.60;1.45;;;14.30;99.90;;;;;;5096330;28;20193;-72
2022/09/16 10:37:53;;;;;;;3.33;1.38;;;14.30;99.90;;;;;;5096278;28;20221;-72
2022/09/16 10:40:23;;;;;;;3.53;1.20;;;14.30;99.90;;;;;;5095940;28;20178;-73
2022/09/16 10:42:53;;;;;;;5.43;1.65;;;14.40;99.90;;;;;;5095908;28;20195;-71
2022/09/16 10:45:26;;;;;;;3.63;1.80;;;14.40;99.90;;;;;;5095038;28;20198;-74
2022/09/16 10:47:59;;;;;;;4.07;1.65;;;14.40;99.90;;;;;;5095861;28;20218;-69
2022/09/16 10:50:34;;;;;;;6.03;2.38;;;14.40;99.90;;;;;;5095701;28;20217;-67
2022/09/16 10:53:02;;;;;;;7.32;1.67;;;14.40;99.90;;;;;;5095719;28;20209;-67
2022/09/16 10:55:34;;;;;;;4.03;1.80;;;14.40;99.90;;;;;;5095683;28;20195;-67
2022/09/16 10:58:18;;;;;;;5.82;1.98;;;14.40;99.90;;;;;;5095573;28;20217;-67
2022/09/16 11:00:53;;;;;;;2.75;1.67;;;14.30;99.90;;;;;;5095598;28;20182;-67
2022/09/16 11:03:42;;;;;;;3.33;1.60;;;14.30;99.90;;;;;;5094468;28;20197;-66
2022/09/16 11:06:24;;;;;;;7.18;2.03;;;14.30;99.90;;;;;;5095533;28;20198;-68
2022/09/16 11:09:03;;;;;;;3.28;1.60;;;14.30;99.90;;;;;;5095320;28;20699;-67
2022/09/16 11:11:50;;;;;;;5.45;2.13;;;14.30;99.90;;;;;;5095254;28;20312;-67
2022/09/16 11:14:31;;;;;;;5.38;1.92;;;14.20;99.90;;;;;;5095324;28;20189;-68
2022/09/16 11:17:13;;;;;;;5.93;1.88;;;14.20;99.90;;;;;;5095202;28;20194;-67
2022/09/16 11:19:56;;;;;;;5.68;2.00;;;14.20;99.90;;;;;;5093993;28;20194;-67
2022/09/16 11:22:32;;;;;;;6.20;2.03;;;14.20;99.90;;;;;;5095160;28;20201;-68
2022/09/16 11:25:29;;;;;;;7.28;2.25;;;14.30;99.90;;;;;;5095183;28;20197;-66
2022/09/16 11:28:07;;;;;;;4.65;1.92;;;14.30;99.90;;;;;;5095083;28;20579;-67
2022/09/16 11:30:45;;;;;;;3.90;1.70;;;14.20;99.90;;;;;;5095022;28;20210;-66
2022/09/16 11:33:23;;;;;;;6.13;2.00;;;14.20;99.90;;;;;;5095206;28;20245;-71
2022/09/16 11:36:22;;;;;;;5.35;1.83;;;14.20;99.90;;;;;;5094061;28;20213;-69
2022/09/16 11:39:02;;;;;;;5.57;2.10;;;14.10;99.90;;;;;;5096001;28;20229;-69
2022/09/16 11:41:34;;;;;;;5.10;2.15;;;14.10;99.90;;;;;;5093537;28;20178;-69
2022/09/16 11:44:26;;;;;;;5.13;2.25;;;14.10;99.90;;;;;;5094881;28;20190;-69
2022/09/16 11:47:08;;;;;;;4.68;2.28;;;14.10;99.90;;;;;;5094831;28;20206;-75
2022/09/16 11:49:49;;;;;;;5.15;2.08;;;14.10;99.90;;;;;;5094990;28;20175;-75
2022/09/16 11:52:33;;;;;;;5.15;1.98;;;14.10;99.90;;;;;;5094425;28;20241;-73
2022/09/16 11:55:28;;;;;;;5.13;2.33;;;14.10;99.90;;;;;;5073546;28;20191;-76
2022/09/16 11:58:02;;;;;;;5.20;2.58;;;14.20;99.90;;;;;;5074434;28;20211;-75
2022/09/16 12:00:34;;;;;;;6.55;2.33;;;14.30;99.90;;;;;;5073417;28;20183;-76
2022/09/16 12:03:11;;;;;;;3.42;1.90;;;14.40;99.90;;;;;;5074549;28;20187;-76
2022/09/16 12:05:44;;;;;;;3.22;1.92;;;14.40;99.90;;;;;;5074343;28;20187;-75
2022/09/16 12:08:21;;;;;;;6.22;2.15;;;14.50;99.90;;;;;;5073851;28;20230;-76
2022/09/16 12:10:54;;;;;;;4.25;2.08;;;14.70;99.90;;;;;;5074454;28;20584;-75
2022/09/16 12:13:26;;;;;;;5.95;1.95;;;14.80;99.90;;;;;;5072813;28;20270;-76
2022/09/16 12:15:59;;;;;;;3.47;2.10;;;15.00;99.90;;;;;;5056262;28;20195;-75
2022/09/16 12:18:32;;;;;;;4.43;2.10;;;15.30;99.90;;;;;;5073882;28;20215;-74
2022/09/16 12:21:08;;;;;;;4.47;2.10;;;15.60;99.90;;;;;;5072716;28;20195;-74
2022/09/16 12:23:44;;;;;;;4.45;2.33;;;15.80;99.90;;;;;;5073828;28;20198;-74
2022/09/16 12:26:17;;;;;;;4.95;2.25;;;15.90;99.90;;;;;;5073825;28;20183;-75
2022/09/16 12:28:51;;;;;;;5.35;2.13;;;16.00;99.90;;;;;;5074195;28;20230;-75
2022/09/16 12:31:28;;;;;;;4.68;1.83;;;16.10;99.90;;;;;;5073646;28;20206;-74
2022/09/16 12:34:02;;;;;;;4.20;2.00;;;16.10;99.90;;;;;;5073727;28;20187;-74
2022/09/16 12:36:34;;;;;;;4.97;1.92;;;16.20;99.90;;;;;;5073559;28;20187;-74
2022/09/16 12:39:05;;;;;;;5.38;2.15;;;16.20;99.90;;;;;;5073446;28;20211;-73
2022/09/16 12:42:15;;;;;;;3.67;1.83;;;16.20;99.90;;;;;;5073426;28;20532;-75
2022/09/16 12:45:02;;;;;;;5.30;1.98;;;16.30;99.90;;;;;;5073872;28;20203;-75
2022/09/16 12:47:58;;;;;;;5.47;2.20;;;16.60;99.90;;;;;;5073231;28;20696;-74
2022/09/16 12:50:45;;;;;;;4.97;1.88;;;16.70;99.90;;;;;;5072221;28;20555;-74
2022/09/16 12:53:48;;;;;;;5.65;2.20;;;16.50;99.90;;;;;;5072929;28;20192;-75
2022/09/16 12:56:45;;;;;;;5.82;1.90;;;16.40;99.90;;;;;;5073286;28;20187;-73
2022/09/16 12:59:27;;;;;;;5.90;2.13;;;16.20;99.90;;;;;;5071780;28;20234;-76
2022/09/16 13:02:00;;;;;;;5.30;2.28;;;16.00;99.90;;;;;;5072261;28;20202;-74
2022/09/16 13:04:34;;;;;;;6.28;2.22;;;15.80;99.90;;;;;;5071852;28;20199;-76
2022/09/16 13:07:03;;;;;;;4.65;1.90;;;15.80;99.90;;;;;;5071831;28;20179;-75
2022/09/16 13:09:37;;;;;;;5.70;2.10;;;15.70;99.90;;;;;;5072908;28;20191;-75
2022/09/16 13:12:21;;;;;;;3.63;1.92;;;15.70;99.90;;;;;;5072881;28;20214;-73
2022/09/16 13:15:24;;;;;;;4.05;1.85;;;15.90;99.90;;;;;;5072811;28;20186;-74
2022/09/16 13:17:53;;;;;;;3.60;1.90;;;16.20;99.90;;;;;;5076527;28;20237;-73
2022/09/16 13:20:28;;;;;;;4.15;1.77;;;16.50;99.90;;;;;;5092791;28;20202;-76